KCDS

Childress Municipal Airport

Childress, Texas, USA
METAR KCDS 172153Z AUTO 19012KT 10SM FEW095 28/18 A3003 RMK AO2 PK WND 19028/2108 LTG DSNT NE-S SLP141 T02780183
Observed Flight Rules
Aug-17 @ 21:53 UTC (43 minutes ago) Visual Flight Rules
Wind Visibility Clouds
190° at 12 knots 10 miles
  • Few at 9,500' AGL
Temperatures Readings
Current 28°C / 82°F
Dewpoint 18°C / 64°F
Humidity 55%
Altimeter 30.03" Hg
Pressure 1014.1 hPa
Elevation 594
METAR KCDS 172153Z AUTO 19012KT 10SM FEW095 28/18 A3003 RMK AO2 PK WND 19028/2108 LTG DSNT NE-S SLP141 T02780183
Observed Flight Rules
Aug-17 @ 21:53 UTC
(43 minutes ago)
VFR
Wind Visibility
190° at 12 knots 10 miles
Clouds
  • Few at 9,500' AGL
Temperature Dewpoint
28°C / 82°F 18°C / 64°F
Humidity Altimeter Pressure
55% 30.03" Hg 1014.1 hPa